Time;durP1;ratioP1;P1;durP2;ratioP2;P2;SDS_P1;SDS_P2;PMS_P1;PMS_P2;Temp;Humidity;BMP_temperature;BMP_pressure;BME280_temperature;BME280_humidity;BME280_pressure;Samples;Min_cycle;Max_cycle;Signal;HPM_P1;HPM_P2
2022/10/08 00:01:17;;;;;;;6.50;1.40;;;13.60;99.90;;;;;;6241013;22;20088;-79
2022/10/08 00:03:50;;;;;;;9.73;2.20;;;13.60;99.90;;;;;;6266281;22;20073;-80
2022/10/08 00:06:21;;;;;;;12.35;1.70;;;13.60;99.90;;;;;;6216370;22;20022;-80
2022/10/08 00:08:55;;;;;;;8.05;1.63;;;13.60;99.90;;;;;;6239800;22;20026;-80
2022/10/08 00:11:24;;;;;;;7.47;2.10;;;13.50;99.90;;;;;;6267317;22;20016;-79
2022/10/08 00:13:52;;;;;;;7.97;1.65;;;13.50;99.90;;;;;;6241494;22;20026;-80
2022/10/08 00:16:27;;;;;;;7.05;1.52;;;13.60;99.90;;;;;;6266760;22;20019;-79
2022/10/08 00:18:54;;;;;;;7.67;1.70;;;13.60;99.90;;;;;;6267055;22;20011;-80
2022/10/08 00:21:43;;;;;;;8.70;1.58;;;13.60;99.90;;;;;;6241643;22;20074;-80
2022/10/08 00:24:15;;;;;;;10.15;1.67;;;13.60;99.90;;;;;;6216773;22;20027;-80
2022/10/08 00:26:41;;;;;;;8.70;1.95;;;13.60;99.90;;;;;;6239749;22;20447;-80
2022/10/08 00:29:08;;;;;;;7.30;1.63;;;13.60;99.90;;;;;;6241244;22;20019;-80
2022/10/08 00:31:37;;;;;;;8.93;1.80;;;13.60;99.90;;;;;;6214990;22;20012;-80
2022/10/08 00:34:07;;;;;;;11.35;2.50;;;13.50;99.90;;;;;;6216241;22;20016;-81
2022/10/08 00:36:34;;;;;;;7.18;1.80;;;13.50;99.90;;;;;;6215318;22;20023;-79
2022/10/08 00:39:10;;;;;;;8.15;1.77;;;13.50;99.90;;;;;;6240936;22;20537;-80
2022/10/08 00:41:37;;;;;;;;;;;13.40;99.90;;;;;;6241551;22;20497;-80
2022/10/08 00:44:41;;;;;;;10.25;1.50;;;13.40;99.90;;;;;;6215353;22;20045;-80
2022/10/08 00:47:34;;;;;;;4.45;1.45;;;13.40;99.90;;;;;;6241147;22;20016;-80
2022/10/08 00:50:13;;;;;;;6.40;1.88;;;13.40;99.90;;;;;;6199901;22;20023;-80
2022/10/08 00:52:46;;;;;;;6.68;1.55;;;13.30;99.90;;;;;;6241004;22;20109;-80
2022/10/08 00:55:14;;;;;;;9.57;1.48;;;13.30;99.90;;;;;;6241953;22;20012;-80
2022/10/08 00:57:42;;;;;;;8.68;1.90;;;13.30;99.90;;;;;;6214451;22;20027;-79
2022/10/08 01:00:22;;;;;;;11.82;2.10;;;13.30;99.90;;;;;;6241776;22;20051;-80
2022/10/08 01:02:48;;;;;;;7.70;1.42;;;13.30;99.90;;;;;;6240814;22;20020;-79
2022/10/08 01:05:16;;;;;;;5.18;1.70;;;13.20;99.90;;;;;;6215999;22;20030;-80
2022/10/08 01:07:52;;;;;;;7.57;1.77;;;13.20;99.90;;;;;;6214410;22;20023;-80
2022/10/08 01:10:37;;;;;;;8.23;1.65;;;13.30;99.90;;;;;;6241298;22;20102;-79
2022/10/08 01:13:25;;;;;;;9.18;1.73;;;13.20;99.90;;;;;;6241761;22;20016;-80
2022/10/08 01:16:17;;;;;;;11.48;1.77;;;13.20;99.90;;;;;;6215312;22;20024;-80
2022/10/08 01:19:12;;;;;;;8.85;1.80;;;13.20;99.90;;;;;;6217230;22;20141;-80
2022/10/08 01:22:07;;;;;;;6.38;1.85;;;13.20;99.90;;;;;;6243043;22;20062;-80
2022/10/08 01:27:35;;;;;;;11.63;2.05;;;13.20;99.90;;;;;;6268182;22;20020;-80
2022/10/08 01:30:04;;;;;;;5.65;1.70;;;13.10;99.90;;;;;;6268182;22;20016;-80
2022/10/08 01:32:47;;;;;;;10.73;1.90;;;13.10;99.90;;;;;;6243522;22;20099;-80
2022/10/08 01:35:25;;;;;;;8.70;1.50;;;13.10;99.90;;;;;;6270431;22;20020;-79
2022/10/08 01:37:54;;;;;;;8.60;1.70;;;13.10;99.90;;;;;;6243737;22;20466;-80
2022/10/08 01:40:26;;;;;;;8.18;2.22;;;13.10;99.90;;;;;;6243876;22;20343;-79
2022/10/08 01:42:53;;;;;;;10.20;2.20;;;13.10;99.90;;;;;;6242106;22;20016;-79
2022/10/08 01:45:23;;;;;;;10.30;1.60;;;13.10;99.90;;;;;;6242331;22;20024;-79
2022/10/08 01:47:53;;;;;;;12.38;2.35;;;13.10;99.90;;;;;;6267361;22;20023;-80
2022/10/08 01:50:28;;;;;;;7.20;1.85;;;13.10;99.90;;;;;;6243367;22;20046;-80
2022/10/08 01:53:00;;;;;;;12.00;2.43;;;13.10;99.90;;;;;;6268672;22;20046;-80
2022/10/08 01:55:36;;;;;;;6.70;1.35;;;13.10;99.90;;;;;;6269024;22;20329;-80
2022/10/08 01:58:08;;;;;;;7.22;1.73;;;13.10;99.90;;;;;;6267801;22;20034;-80
2022/10/08 02:00:37;;;;;;;10.18;1.95;;;13.10;99.90;;;;;;6269437;22;20020;-80
2022/10/08 02:03:03;;;;;;;10.32;1.85;;;13.10;99.90;;;;;;6243169;22;20054;-80
2022/10/08 02:05:33;;;;;;;9.90;1.95;;;13.00;99.90;;;;;;6243141;22;20047;-79
2022/10/08 02:08:00;;;;;;;11.55;2.22;;;13.00;99.90;;;;;;6242770;22;20026;-79
2022/10/08 02:10:27;;;;;;;9.32;2.25;;;13.10;99.90;;;;;;6268841;22;20016;-80
2022/10/08 02:12:53;;;;;;;13.50;2.15;;;13.00;99.90;;;;;;6243383;22;20023;-80
2022/10/08 02:15:20;;;;;;;8.07;2.13;;;13.10;99.90;;;;;;6243845;22;20051;-80
2022/10/08 02:18:09;;;;;;;9.25;1.70;;;13.10;99.90;;;;;;6269823;22;20456;-80
2022/10/08 02:20:44;;;;;;;10.00;1.70;;;13.10;99.90;;;;;;6244689;22;20020;-80
2022/10/08 02:23:21;;;;;;;10.73;2.00;;;13.10;99.90;;;;;;6243799;22;20062;-80
2022/10/08 02:26:00;;;;;;;9.77;1.90;;;13.10;99.90;;;;;;6268613;22;20102;-79
2022/10/08 02:29:02;;;;;;;8.35;1.80;;;13.10;99.90;;;;;;6242594;22;20462;-79
2022/10/08 02:31:39;;;;;;;7.38;1.83;;;13.10;99.90;;;;;;6268246;22;20016;-80
2022/10/08 02:34:29;;;;;;;7.03;2.20;;;13.10;99.90;;;;;;6268120;22;20054;-79
2022/10/08 02:37:17;;;;;;;8.70;1.77;;;13.10;99.90;;;;;;6242083;22;20019;-80
2022/10/08 02:39:49;;;;;;;8.93;1.90;;;13.10;99.90;;;;;;6242683;22;20023;-79
2022/10/08 02:42:20;;;;;;;7.20;1.63;;;13.60;99.90;;;;;;6243266;22;20133;-80
2022/10/08 02:45:32;;;;;;;10.07;2.63;;;13.10;99.90;;;;;;6242329;22;20493;-80
2022/10/08 02:48:13;;;;;;;13.50;2.28;;;13.10;99.90;;;;;;6154626;23;20127;-79
2022/10/08 02:50:43;;;;;;;11.68;2.15;;;13.10;99.90;;;;;;6237481;22;20016;-79
2022/10/08 02:53:13;;;;;;;8.32;1.90;;;13.10;99.90;;;;;;6242962;22;20026;-79
2022/10/08 02:56:00;;;;;;;6.88;1.98;;;13.10;99.90;;;;;;6242897;22;20019;-79
2022/10/08 02:58:26;;;;;;;7.93;1.70;;;13.10;99.90;;;;;;6268262;22;20079;-79
2022/10/08 03:01:00;;;;;;;6.38;1.98;;;13.10;99.90;;;;;;6268330;22;20339;-80
2022/10/08 03:03:33;;;;;;;6.85;1.80;;;13.10;99.90;;;;;;6268463;22;20102;-79
2022/10/08 03:06:07;;;;;;;7.60;1.85;;;13.10;99.90;;;;;;6267755;22;20016;-79
2022/10/08 03:08:35;;;;;;;8.25;1.83;;;13.10;99.90;;;;;;6242823;22;20016;-79
2022/10/08 03:11:02;;;;;;;12.88;2.95;;;13.10;99.90;;;;;;6242270;22;20020;-79
2022/10/08 03:13:32;;;;;;;10.80;2.03;;;13.10;99.90;;;;;;6217592;22;20073;-79
2022/10/08 03:15:58;;;;;;;7.63;1.80;;;13.10;99.90;;;;;;6244104;22;20095;-79
2022/10/08 03:18:25;;;;;;;8.55;2.28;;;13.00;99.90;;;;;;6223401;22;20023;-80
2022/10/08 03:20:54;;;;;;;8.82;1.67;;;13.00;99.90;;;;;;6244926;22;20018;-79
2022/10/08 03:23:19;;;;;;;7.28;1.92;;;13.00;99.90;;;;;;6267070;22;20109;-79
2022/10/08 03:25:45;;;;;;;8.25;1.73;;;12.90;99.90;;;;;;6241689;22;20789;-79
2022/10/08 03:28:11;;;;;;;9.48;1.90;;;12.90;99.90;;;;;;6217455;22;20031;-79
2022/10/08 03:30:37;;;;;;;9.50;1.65;;;12.90;99.90;;;;;;6267656;22;20061;-79
2022/10/08 03:33:02;;;;;;;9.73;2.13;;;12.90;99.90;;;;;;6267940;22;20015;-79
2022/10/08 03:35:28;;;;;;;10.38;1.77;;;12.90;99.90;;;;;;6267833;22;20687;-80
2022/10/08 03:37:54;;;;;;;7.53;2.22;;;12.90;99.90;;;;;;6241598;22;20027;-80
2022/10/08 03:40:20;;;;;;;10.85;1.88;;;12.90;99.90;;;;;;6242077;22;20062;-80
2022/10/08 03:42:46;;;;;;;11.40;1.90;;;12.90;99.90;;;;;;6243590;22;20476;-81
2022/10/08 03:45:12;;;;;;;9.18;2.08;;;12.90;99.90;;;;;;6244390;22;20026;-81
2022/10/08 03:47:38;;;;;;;8.23;1.83;;;12.90;99.90;;;;;;6244008;22;20023;-81
2022/10/08 03:50:04;;;;;;;6.28;1.45;;;12.90;99.90;;;;;;6266221;22;20115;-81
2022/10/08 03:52:30;;;;;;;11.07;2.33;;;12.90;99.90;;;;;;6267643;22;20023;-79
2022/10/08 03:54:55;;;;;;;4.68;1.63;;;12.90;99.90;;;;;;6267258;22;20015;-79
2022/10/08 03:57:21;;;;;;;11.57;2.10;;;12.90;99.90;;;;;;6241490;22;20024;-79
2022/10/08 03:59:47;;;;;;;10.10;1.88;;;12.90;99.90;;;;;;6267807;22;20020;-79
2022/10/08 04:02:13;;;;;;;10.90;2.00;;;12.90;99.90;;;;;;6241745;22;20029;-79
2022/10/08 04:04:39;;;;;;;10.60;2.05;;;12.90;99.90;;;;;;6242836;22;20026;-79
2022/10/08 04:07:04;;;;;;;6.25;1.58;;;12.80;99.90;;;;;;6215950;22;20073;-79
2022/10/08 04:09:30;;;;;;;8.88;1.70;;;12.80;99.90;;;;;;6216580;22;20395;-78
2022/10/08 04:11:56;;;;;;;6.07;1.55;;;12.80;99.90;;;;;;6266744;22;20030;-80
2022/10/08 04:14:21;;;;;;;6.68;1.65;;;12.80;99.90;;;;;;6192717;22;20459;-80
2022/10/08 04:16:47;;;;;;;7.15;1.88;;;12.80;99.90;;;;;;6217023;22;20020;-80
2022/10/08 04:19:13;;;;;;;8.65;1.50;;;12.80;99.90;;;;;;6267056;22;20462;-80
2022/10/08 04:21:39;;;;;;;10.75;1.52;;;12.80;99.90;;;;;;6216384;22;20447;-80
2022/10/08 04:24:05;;;;;;;7.80;1.58;;;12.80;99.90;;;;;;6241958;22;20339;-77
2022/10/08 04:26:31;;;;;;;10.23;2.33;;;12.80;99.90;;;;;;6216086;22;20016;-80
2022/10/08 04:28:56;;;;;;;10.85;1.80;;;12.80;99.90;;;;;;6190808;22;20026;-80
2022/10/08 04:31:23;;;;;;;6.95;1.30;;;12.90;99.90;;;;;;6191390;22;20020;-80
2022/10/08 04:33:50;;;;;;;10.68;1.83;;;12.90;99.90;;;;;;6192725;22;20024;-80
2022/10/08 04:36:18;;;;;;;7.28;1.80;;;12.90;99.90;;;;;;6217147;22;20451;-80
2022/10/08 04:38:45;;;;;;;6.53;1.30;;;12.90;99.90;;;;;;6242200;22;20012;-80
2022/10/08 04:41:16;;;;;;;9.27;1.48;;;12.90;99.90;;;;;;6217427;22;20118;-80
2022/10/08 04:43:43;;;;;;;6.70;1.88;;;12.90;99.90;;;;;;6218008;22;20062;-78
2022/10/08 04:46:11;;;;;;;6.80;1.50;;;12.90;99.90;;;;;;6242017;22;20062;-78
2022/10/08 04:48:38;;;;;;;8.18;1.70;;;12.90;99.90;;;;;;6218402;22;20072;-79
2022/10/08 04:51:06;;;;;;;8.70;1.90;;;12.90;99.90;;;;;;6243186;22;20012;-79
2022/10/08 04:53:32;;;;;;;7.93;1.60;;;12.90;99.90;;;;;;6221184;22;20019;-79
2022/10/08 04:56:08;;;;;;;8.90;1.67;;;12.90;99.90;;;;;;6169718;22;20019;-79
2022/10/08 04:58:33;;;;;;;9.40;2.03;;;12.90;99.90;;;;;;6244742;22;20374;-79
2022/10/08 05:01:06;;;;;;;6.38;1.60;;;12.90;99.90;;;;;;6192931;22;20447;-79
2022/10/08 05:03:40;;;;;;;8.30;1.75;;;13.00;99.90;;;;;;6244409;22;20073;-79
2022/10/08 05:06:06;;;;;;;7.40;1.70;;;12.90;99.90;;;;;;6217272;22;20106;-79
2022/10/08 05:08:32;;;;;;;5.50;1.63;;;13.00;99.90;;;;;;6218461;22;20049;-79
2022/10/08 05:10:58;;;;;;;5.68;1.60;;;12.90;99.90;;;;;;6218002;22;20751;-80
2022/10/08 05:13:24;;;;;;;6.25;1.48;;;13.00;99.90;;;;;;6220746;22;20027;-78
2022/10/08 05:15:50;;;;;;;7.53;1.38;;;13.00;99.90;;;;;;6220486;22;20507;-79
2022/10/08 05:18:15;;;;;;;10.48;1.48;;;13.00;99.90;;;;;;6219475;22;20107;-80
2022/10/08 05:20:41;;;;;;;6.30;1.33;;;12.90;99.90;;;;;;6195094;22;20023;-79
2022/10/08 05:23:07;;;;;;;7.32;1.50;;;13.00;99.90;;;;;;6210972;22;20061;-80
2022/10/08 05:25:34;;;;;;;5.15;1.45;;;13.00;99.90;;;;;;6271069;22;20015;-79
2022/10/08 05:28:00;;;;;;;8.23;1.80;;;13.00;99.90;;;;;;6244906;22;20023;-79
2022/10/08 05:30:26;;;;;;;5.15;1.30;;;13.00;99.90;;;;;;6220485;22;20024;-79
2022/10/08 05:32:52;;;;;;;7.03;1.70;;;13.00;99.90;;;;;;6270734;22;20098;-80
2022/10/08 05:35:18;;;;;;;5.38;1.27;;;13.00;99.90;;;;;;6219359;22;20050;-79
2022/10/08 05:37:43;;;;;;;11.52;1.50;;;13.00;99.90;;;;;;6218676;22;20027;-79
2022/10/08 05:40:09;;;;;;;5.40;1.27;;;12.90;99.90;;;;;;6244251;22;20047;-79
2022/10/08 05:42:35;;;;;;;7.68;1.58;;;12.80;99.90;;;;;;6193577;22;20030;-79
2022/10/08 05:45:01;;;;;;;8.23;1.80;;;12.70;99.90;;;;;;6218881;22;20391;-79
2022/10/08 05:47:26;;;;;;;10.32;1.80;;;12.60;99.90;;;;;;6244574;22;20024;-78
2022/10/08 05:49:52;;;;;;;12.25;1.98;;;12.70;99.90;;;;;;6269517;22;20142;-79
2022/10/08 05:52:18;;;;;;;8.07;1.52;;;12.60;99.90;;;;;;6268769;22;20173;-78
2022/10/08 05:54:44;;;;;;;7.22;1.60;;;12.50;99.90;;;;;;6219056;22;20016;-78
2022/10/08 05:57:09;;;;;;;7.78;1.98;;;12.60;99.90;;;;;;6217583;22;20077;-80
2022/10/08 05:59:41;;;;;;;9.27;1.73;;;12.60;99.90;;;;;;6270072;22;20030;-79
2022/10/08 06:02:08;;;;;;;7.57;1.30;;;12.60;99.90;;;;;;6268648;22;20019;-79
2022/10/08 06:04:34;;;;;;;9.27;1.88;;;12.70;99.90;;;;;;6271322;22;20027;-77
2022/10/08 06:06:59;;;;;;;10.38;1.92;;;12.70;99.90;;;;;;6217519;22;20369;-78
2022/10/08 06:09:25;;;;;;;7.57;2.38;;;12.70;99.90;;;;;;6268623;22;20016;-77
2022/10/08 06:11:51;;;;;;;7.03;1.80;;;12.70;99.90;;;;;;6243258;22;20050;-77
2022/10/08 06:14:19;;;;;;;10.13;1.90;;;12.70;99.90;;;;;;6243755;22;20024;-78
2022/10/08 06:16:44;;;;;;;7.53;1.58;;;12.70;99.90;;;;;;6243850;22;20474;-80
2022/10/08 06:19:10;;;;;;;6.63;1.70;;;12.70;99.90;;;;;;6243434;22;20024;-80
2022/10/08 06:21:36;;;;;;;8.93;1.48;;;12.70;99.90;;;;;;6242707;22;20031;-80
2022/10/08 06:24:05;;;;;;;4.32;1.58;;;12.70;99.90;;;;;;6218944;22;20058;-80
2022/10/08 06:26:34;;;;;;;7.97;1.50;;;12.70;99.90;;;;;;6218604;22;20471;-79
2022/10/08 06:28:59;;;;;;;7.50;1.70;;;12.70;99.90;;;;;;6217178;22;20339;-79
2022/10/08 06:31:25;;;;;;;9.38;1.75;;;12.70;99.90;;;;;;6217597;22;20011;-79
2022/10/08 06:33:57;;;;;;;10.07;1.67;;;12.70;99.90;;;;;;6193037;22;20106;-78
2022/10/08 06:36:25;;;;;;;7.28;1.70;;;12.70;99.90;;;;;;6219115;22;20027;-79
2022/10/08 06:38:53;;;;;;;7.43;1.85;;;12.80;99.90;;;;;;6220290;22;20016;-79
2022/10/08 06:41:19;;;;;;;8.63;1.58;;;12.80;99.90;;;;;;6245732;22;20085;-79
2022/10/08 06:43:46;;;;;;;4.97;1.30;;;12.90;99.90;;;;;;6221394;22;20049;-78
2022/10/08 06:46:12;;;;;;;7.03;1.40;;;12.80;99.90;;;;;;6246323;22;20069;-79
2022/10/08 06:48:38;;;;;;;8.82;1.88;;;12.80;99.90;;;;;;6220973;22;20012;-77
2022/10/08 06:51:06;;;;;;;6.18;1.50;;;12.80;99.90;;;;;;6197283;22;20016;-78
2022/10/08 06:53:33;;;;;;;5.25;1.35;;;12.80;99.90;;;;;;6222329;22;20022;-78
2022/10/08 06:56:01;;;;;;;6.00;1.30;;;12.80;99.90;;;;;;6218890;22;20067;-79
2022/10/08 06:58:27;;;;;;;6.65;1.38;;;12.80;99.90;;;;;;6242678;22;20016;-78
2022/10/08 07:01:04;;;;;;;5.18;1.40;;;12.80;99.90;;;;;;6218287;22;20050;-79
2022/10/08 07:03:30;;;;;;;4.72;0.95;;;12.80;99.90;;;;;;6216830;22;20509;-78
2022/10/08 07:05:59;;;;;;;5.82;1.48;;;12.70;99.90;;;;;;6217642;22;20019;-78
2022/10/08 07:08:25;;;;;;;4.88;1.00;;;12.80;99.90;;;;;;6193927;22;20019;-79
2022/10/08 07:10:50;;;;;;;5.40;1.15;;;12.80;99.90;;;;;;6244825;22;20019;-77
2022/10/08 07:13:16;;;;;;;5.28;1.50;;;12.80;99.90;;;;;;6242455;22;20030;-78
2022/10/08 07:15:42;;;;;;;5.88;1.50;;;12.80;99.90;;;;;;6194327;22;20019;-77
2022/10/08 07:18:10;;;;;;;8.65;1.50;;;12.80;99.90;;;;;;6245514;22;20108;-78
2022/10/08 07:20:36;;;;;;;8.52;1.60;;;12.80;99.90;;;;;;6218280;22;20023;-78
2022/10/08 07:23:02;;;;;;;5.15;1.80;;;12.90;99.90;;;;;;6256242;22;20022;-78
2022/10/08 07:25:27;;;;;;;2.50;1.10;;;12.80;99.90;;;;;;6268616;22;20045;-79
2022/10/08 07:27:53;;;;;;;2.67;1.17;;;12.90;99.90;;;;;;6242293;22;20022;-79
2022/10/08 07:30:19;;;;;;;6.25;1.52;;;12.90;99.90;;;;;;6268162;22;20019;-79
2022/10/08 07:32:45;;;;;;;5.68;1.80;;;12.90;99.90;;;;;;6243143;22;20019;-78
2022/10/08 07:35:10;;;;;;;5.60;1.60;;;12.90;99.90;;;;;;6216977;22;20498;-78
2022/10/08 07:37:40;;;;;;;5.38;1.17;;;13.00;99.90;;;;;;6243938;22;20026;-78
2022/10/08 07:40:06;;;;;;;6.45;1.42;;;13.10;99.90;;;;;;6268712;22;20085;-78
2022/10/08 07:42:32;;;;;;;4.72;1.13;;;13.10;99.90;;;;;;6269267;22;20020;-79
2022/10/08 07:44:57;;;;;;;6.18;1.30;;;13.10;99.90;;;;;;6244693;22;20022;-78
2022/10/08 07:47:23;;;;;;;5.53;1.20;;;13.20;99.90;;;;;;6243715;22;20620;-78
2022/10/08 07:49:49;;;;;;;5.95;1.25;;;13.30;99.90;;;;;;6193522;22;20023;-78
2022/10/08 07:52:14;;;;;;;9.57;2.03;;;13.40;99.90;;;;;;6217334;22;20024;-77
2022/10/08 07:54:41;;;;;;;5.38;1.33;;;13.60;99.90;;;;;;6242604;22;20023;-77
2022/10/08 07:57:07;;;;;;;4.35;1.20;;;13.70;99.90;;;;;;6216385;22;20058;-77
2022/10/08 07:59:32;;;;;;;4.75;0.98;;;13.80;99.90;;;;;;6242359;22;20042;-78
2022/10/08 08:01:58;;;;;;;9.95;2.00;;;13.80;99.90;;;;;;6268724;22;20458;-78
2022/10/08 08:04:25;;;;;;;4.93;1.08;;;13.80;99.90;;;;;;6267603;22;20166;-78
2022/10/08 08:06:51;;;;;;;5.85;1.50;;;13.80;99.90;;;;;;6267700;22;20718;-78
2022/10/08 08:09:17;;;;;;;7.25;1.60;;;13.80;99.90;;;;;;6242190;22;20055;-77
2022/10/08 08:11:45;;;;;;;5.43;1.50;;;13.80;99.90;;;;;;6242575;22;20046;-78
2022/10/08 08:14:11;;;;;;;6.03;1.20;;;13.80;99.90;;;;;;6267480;22;20100;-78
2022/10/08 08:16:37;;;;;;;6.22;1.52;;;14.00;99.90;;;;;;6243823;22;20051;-78
2022/10/08 08:19:04;;;;;;;3.38;1.50;;;14.20;99.90;;;;;;6243517;22;20015;-78
2022/10/08 08:21:32;;;;;;;6.53;1.38;;;14.30;99.90;;;;;;6267786;22;20054;-78
2022/10/08 08:24:03;;;;;;;7.60;1.30;;;14.30;99.90;;;;;;6241593;22;20023;-79
2022/10/08 08:26:34;;;;;;;6.97;1.60;;;14.10;99.90;;;;;;6267601;22;20081;-78
2022/10/08 08:29:07;;;;;;;6.50;1.45;;;14.00;99.90;;;;;;6268059;22;20149;-78
2022/10/08 08:31:42;;;;;;;6.07;1.58;;;14.10;99.90;;;;;;6267986;22;20443;-79
2022/10/08 08:34:11;;;;;;;8.52;1.35;;;14.10;99.90;;;;;;6268057;22;20019;-79
2022/10/08 08:36:39;;;;;;;7.93;1.70;;;14.30;99.90;;;;;;6244968;22;20496;-81
2022/10/08 08:39:07;;;;;;;6.68;1.42;;;14.40;99.90;;;;;;6243110;22;20031;-79
2022/10/08 08:42:07;;;;;;;7.35;1.38;;;14.60;99.90;;;;;;6218412;22;20026;-81
2022/10/08 08:44:40;;;;;;;4.03;1.30;;;14.70;99.90;;;;;;6244248;22;20023;-79
2022/10/08 08:47:29;;;;;;;7.25;1.63;;;14.90;99.90;;;;;;6244185;22;20020;-79
2022/10/08 08:50:01;;;;;;;4.55;1.35;;;14.90;99.90;;;;;;6244642;22;20011;-78
2022/10/08 08:52:39;;;;;;;5.97;1.40;;;14.90;99.90;;;;;;6243164;22;20016;-79
2022/10/08 08:55:17;;;;;;;5.60;1.55;;;14.80;99.90;;;;;;6242624;22;20675;-79
2022/10/08 08:58:02;;;;;;;8.55;1.42;;;13.70;99.90;;;;;;6244798;22;20443;-79
2022/10/08 09:00:34;;;;;;;6.33;1.30;;;14.70;99.90;;;;;;6270840;22;20062;-79
2022/10/08 09:03:05;;;;;;;5.35;1.30;;;14.60;99.90;;;;;;6246021;22;20086;-80
2022/10/08 09:05:38;;;;;;;5.80;1.30;;;14.50;99.90;;;;;;6241512;22;20016;-79
2022/10/08 09:08:29;;;;;;;5.63;1.58;;;14.50;99.90;;;;;;6242193;22;20026;-79
2022/10/08 09:10:57;;;;;;;7.50;1.58;;;14.50;99.90;;;;;;6254343;22;20515;-79
2022/10/08 09:13:58;;;;;;;4.70;1.20;;;14.40;99.90;;;;;;6244243;22;20031;-79
2022/10/08 09:16:26;;;;;;;7.03;1.30;;;14.30;99.90;;;;;;6270756;22;20335;-79
2022/10/08 09:18:53;;;;;;;6.53;1.38;;;14.30;99.90;;;;;;6244344;22;20016;-79
2022/10/08 09:21:19;;;;;;;5.65;1.27;;;14.30;99.90;;;;;;6244562;22;20154;-80
2022/10/08 09:23:45;;;;;;;6.20;1.30;;;14.20;99.90;;;;;;6244546;22;20023;-79
2022/10/08 09:26:15;;;;;;;8.30;1.60;;;14.30;99.90;;;;;;6268954;22;20024;-79
2022/10/08 09:28:52;;;;;;;6.70;1.20;;;14.30;99.90;;;;;;6268355;22;20099;-80
2022/10/08 09:31:21;;;;;;;7.75;1.52;;;14.30;99.90;;;;;;6269508;22;20027;-80
2022/10/08 09:34:09;;;;;;;7.35;1.10;;;14.30;99.90;;;;;;6244982;22;20077;-80
2022/10/08 09:37:00;;;;;;;8.25;1.60;;;14.40;99.90;;;;;;6241552;22;20107;-80
2022/10/08 09:39:29;;;;;;;7.43;1.38;;;14.50;99.90;;;;;;6244085;22;20028;-81
2022/10/08 09:42:06;;;;;;;5.85;1.35;;;14.60;99.90;;;;;;6242628;22;20141;-79
2022/10/08 09:44:57;;;;;;;7.28;1.40;;;14.70;99.90;;;;;;6243138;22;20070;-78
2022/10/08 09:47:24;;;;;;;3.80;1.30;;;14.70;99.90;;;;;;6267937;22;20016;-78
2022/10/08 09:50:20;;;;;;;7.75;1.45;;;14.80;99.90;;;;;;6243997;22;20016;-77
2022/10/08 09:52:48;;;;;;;6.60;1.55;;;14.80;99.90;;;;;;6243929;22;20405;-77
2022/10/08 09:55:27;;;;;;;4.57;1.60;;;14.80;99.90;;;;;;6244180;22;20012;-78
2022/10/08 09:57:59;;;;;;;6.85;2.42;;;14.70;99.90;;;;;;6269298;22;20439;-78
2022/10/08 10:00:31;;;;;;;10.38;2.05;;;14.70;99.90;;;;;;6269527;22;20141;-78
2022/10/08 10:02:58;;;;;;;8.40;2.35;;;14.70;99.90;;;;;;6244542;22;20074;-79
2022/10/08 10:05:27;;;;;;;4.32;1.30;;;14.80;99.90;;;;;;6268679;22;20024;-78
2022/10/08 10:07:53;;;;;;;7.20;1.50;;;14.70;99.90;;;;;;6244195;22;20023;-77
2022/10/08 10:10:28;;;;;;;5.82;1.60;;;14.70;99.90;;;;;;6268425;22;20439;-77
2022/10/08 10:13:08;;;;;;;7.40;1.83;;;14.70;99.90;;;;;;6244652;22;20015;-77
2022/10/08 10:15:47;;;;;;;8.02;2.92;;;14.70;99.90;;;;;;6269570;22;20020;-78
2022/10/08 10:18:18;;;;;;;6.10;2.15;;;14.70;99.90;;;;;;6243283;22;20044;-78
2022/10/08 10:20:50;;;;;;;7.53;1.38;;;14.70;99.90;;;;;;6247214;22;20023;-80
2022/10/08 10:23:24;;;;;;;6.28;1.65;;;14.70;99.90;;;;;;6268687;22;20360;-78
2022/10/08 10:26:03;;;;;;;8.55;1.60;;;14.70;99.90;;;;;;6275834;22;20023;-78
2022/10/08 10:28:37;;;;;;;4.53;1.08;;;14.70;99.90;;;;;;6272264;22;20499;-79
2022/10/08 10:31:20;;;;;;;5.38;1.33;;;14.70;99.90;;;;;;6271409;22;20016;-80
2022/10/08 10:34:12;;;;;;;6.75;1.33;;;14.70;99.90;;;;;;6273091;22;20042;-80
2022/10/08 10:36:50;;;;;;;4.95;1.38;;;14.70;99.90;;;;;;6271656;22;20046;-80
2022/10/08 10:39:42;;;;;;;5.68;1.45;;;14.70;99.90;;;;;;6245204;22;20020;-80
2022/10/08 10:42:17;;;;;;;6.63;1.70;;;14.80;99.90;;;;;;6269775;22;20493;-80
2022/10/08 10:45:05;;;;;;;6.35;1.60;;;14.80;99.90;;;;;;6245864;22;20073;-80
2022/10/08 10:47:32;;;;;;;5.18;1.48;;;14.90;99.90;;;;;;6270268;22;20447;-80
2022/10/08 10:50:00;;;;;;;12.73;1.60;;;15.00;99.90;;;;;;6220229;22;20023;-80
2022/10/08 10:52:49;;;;;;;7.00;1.58;;;15.20;99.90;;;;;;6270981;22;20011;-80
2022/10/08 10:55:24;;;;;;;5.07;1.30;;;15.60;99.90;;;;;;6245485;22;20061;-80
2022/10/08 10:58:17;;;;;;;5.18;1.40;;;16.00;99.90;;;;;;6245151;22;20019;-80
2022/10/08 11:01:17;;;;;;;7.50;1.60;;;16.40;99.90;;;;;;6245970;22;20016;-80
2022/10/08 11:03:56;;;;;;;6.65;1.33;;;16.70;99.90;;;;;;6213697;22;20015;-80
2022/10/08 11:06:52;;;;;;;8.77;1.77;;;17.00;99.90;;;;;;6270973;22;20116;-83
2022/10/08 11:09:30;;;;;;;6.38;1.65;;;17.40;99.90;;;;;;6244180;22;20110;-81
2022/10/08 11:11:59;;;;;;;7.40;1.35;;;17.60;99.90;;;;;;6245674;22;20030;-81
2022/10/08 11:14:35;;;;;;;6.22;1.48;;;17.90;99.90;;;;;;6245254;22;20153;-81
2022/10/08 11:17:04;;;;;;;6.28;1.40;;;18.70;99.90;;;;;;6245247;22;20324;-80
2022/10/08 11:19:58;;;;;;;7.80;1.58;;;19.30;99.90;;;;;;6270360;22;20018;-81
2022/10/08 11:23:07;;;;;;;4.78;1.20;;;20.00;99.90;;;;;;6270210;22;20023;-80
2022/10/08 11:25:54;;;;;;;8.95;1.65;;;20.80;99.90;;;;;;6261585;22;20454;-81
2022/10/08 11:28:23;;;;;;;5.38;1.05;;;21.30;99.40;;;;;;6270084;22;20016;-81
2022/10/08 11:31:01;;;;;;;5.07;1.25;;;21.60;98.90;;;;;;6270055;22;20351;-80
2022/10/08 11:33:27;;;;;;;6.05;1.42;;;22.00;97.90;;;;;;6269542;22;20043;-80
2022/10/08 11:36:20;;;;;;;5.03;1.05;;;22.40;96.90;;;;;;6270553;22;20012;-81
2022/10/08 11:39:33;;;;;;;5.25;1.35;;;22.70;95.10;;;;;;6270943;22;20023;-80
2022/10/08 11:42:04;;;;;;;6.53;1.23;;;23.10;95.00;;;;;;6157780;23;20099;-80
2022/10/08 11:44:30;;;;;;;6.03;1.45;;;23.30;94.50;;;;;;6182483;23;20059;-80
2022/10/08 11:47:33;;;;;;;6.57;1.40;;;23.30;94.40;;;;;;6203629;22;20088;-80
2022/10/08 11:50:00;;;;;;;9.25;1.40;;;23.30;94.10;;;;;;6270297;22;20020;-80
2022/10/08 11:52:30;;;;;;;4.32;1.17;;;23.30;94.20;;;;;;6270105;22;20019;-80
2022/10/08 11:54:57;;;;;;;5.95;1.25;;;22.80;93.80;;;;;;6245028;22;20032;-80
2022/10/08 11:57:35;;;;;;;3.22;1.00;;;22.80;93.90;;;;;;6269661;22;20019;-80
2022/10/08 12:00:11;;;;;;;5.63;1.70;;;22.90;93.80;;;;;;6245357;22;20313;-80
2022/10/08 12:02:42;;;;;;;6.18;1.33;;;23.30;93.90;;;;;;6243115;22;20030;-80
2022/10/08 12:05:20;;;;;;;8.18;1.58;;;23.70;93.10;;;;;;6268617;22;20019;-80
2022/10/08 12:07:57;;;;;;;6.00;1.52;;;24.00;93.10;;;;;;6267399;22;20272;-80
2022/10/08 12:10:28;;;;;;;6.03;1.40;;;24.00;90.80;;;;;;6242244;22;20100;-80
2022/10/08 12:12:58;;;;;;;5.03;1.10;;;23.80;91.90;;;;;;6268424;22;20023;-80
2022/10/08 12:15:24;;;;;;;4.78;1.33;;;23.50;91.90;;;;;;6242737;22;20020;-80
2022/10/08 12:18:09;;;;;;;6.40;1.80;;;23.40;92.00;;;;;;6242170;22;20019;-80
2022/10/08 12:20:37;;;;;;;5.33;1.47;;;23.00;91.80;;;;;;6267591;22;20019;-80
2022/10/08 12:23:12;;;;;;;4.95;1.15;;;22.60;92.50;;;;;;6241847;22;20035;-80
2022/10/08 12:26:01;;;;;;;8.95;1.48;;;22.60;92.50;;;;;;6267329;22;20016;-80
2022/10/08 12:28:27;;;;;;;7.97;1.20;;;22.60;92.90;;;;;;6266167;22;20031;-81
2022/10/08 12:30:59;;;;;;;4.75;1.33;;;22.50;93.20;;;;;;6242282;22;20019;-80
2022/10/08 12:33:25;;;;;;;5.57;1.42;;;22.50;92.40;;;;;;6266663;22;20427;-81
2022/10/08 12:36:17;;;;;;;4.05;1.35;;;22.30;92.60;;;;;;6269717;22;20026;-81
2022/10/08 12:38:58;;;;;;;3.38;1.13;;;22.60;92.20;;;;;;6244615;22;20058;-81
2022/10/08 12:41:27;;;;;;;5.75;1.35;;;22.80;91.80;;;;;;6243865;22;20027;-78
2022/10/08 12:44:11;;;;;;;8.65;1.55;;;23.00;92.00;;;;;;6244525;22;20043;-79
2022/10/08 12:47:13;;;;;;;5.00;1.23;;;22.70;91.90;;;;;;6270042;22;20019;-78
2022/10/08 12:49:39;;;;;;;6.57;1.80;;;22.70;92.00;;;;;;6269636;22;20312;-79
2022/10/08 12:52:11;;;;;;;4.28;1.20;;;22.50;92.50;;;;;;6270454;22;20016;-79
2022/10/08 12:54:50;;;;;;;6.35;1.45;;;22.40;92.20;;;;;;6270252;22;20051;-79
2022/10/08 12:57:39;;;;;;;5.78;1.45;;;22.00;92.40;;;;;;6240677;22;20023;-79
2022/10/08 13:00:08;;;;;;;6.35;1.40;;;22.00;92.50;;;;;;6266710;22;20022;-77
2022/10/08 13:02:37;;;;;;;4.45;1.33;;;22.10;93.30;;;;;;6267572;22;20024;-80
2022/10/08 13:05:27;;;;;;;6.35;1.38;;;22.00;93.00;;;;;;6244215;22;20024;-80
2022/10/08 13:07:53;;;;;;;5.40;1.67;;;22.10;92.90;;;;;;6267215;22;20179;-79
2022/10/08 13:10:26;;;;;;;3.75;1.60;;;22.00;93.50;;;;;;6269215;22;20443;-79
2022/10/08 13:13:03;;;;;;;3.65;0.90;;;22.20;92.70;;;;;;6244316;22;20119;-79
2022/10/08 13:15:31;;;;;;;5.20;1.20;;;22.00;92.70;;;;;;6245409;22;20302;-79